createdAt,value
2018-12-16T00:00:47.047Z,26.55
2018-12-16T00:01:48.565Z,26.73
2018-12-16T00:02:49.939Z,26.12
2018-12-16T00:03:51.316Z,28.40
2018-12-16T00:04:52.709Z,29.30
2018-12-16T00:05:54.165Z,27.98
2018-12-16T00:06:55.616Z,27.42
2018-12-16T00:07:57.000Z,30.77
2018-12-16T00:08:58.377Z,26.52
2018-12-16T00:09:59.858Z,25.10
2018-12-16T00:11:01.501Z,26.00
2018-12-16T00:12:03.932Z,25.48
2018-12-16T00:13:05.484Z,26.48
2018-12-16T00:14:06.861Z,24.52
2018-12-16T00:15:08.322Z,27.52
2018-12-16T00:16:09.772Z,26.65
2018-12-16T00:17:11.163Z,25.45
2018-12-16T00:18:12.558Z,24.85
2018-12-16T00:19:14.035Z,26.52
2018-12-16T00:20:15.650Z,26.68
2018-12-16T00:21:18.472Z,26.27
2018-12-16T00:22:20.139Z,25.17
2018-12-16T00:23:21.840Z,25.45
2018-12-16T00:24:23.337Z,26.42
2018-12-16T00:25:24.836Z,25.68
2018-12-16T00:26:26.466Z,25.77
2018-12-16T00:27:28.097Z,25.52
2018-12-16T00:28:29.755Z,24.90
2018-12-16T00:29:31.296Z,25.32
2018-12-16T00:30:32.843Z,24.67
2018-12-16T00:31:34.277Z,23.38
2018-12-16T00:32:35.663Z,25.52
2018-12-16T00:33:37.029Z,25.00
2018-12-16T00:34:38.457Z,25.25
2018-12-16T00:35:39.831Z,25.35
2018-12-16T00:36:41.253Z,27.48
2018-12-16T00:37:42.661Z,26.35
2018-12-16T00:38:44.162Z,25.25
2018-12-16T00:39:45.539Z,26.10
2018-12-16T00:40:46.900Z,25.65
2018-12-16T00:41:48.309Z,26.82
2018-12-16T00:42:49.696Z,27.40
2018-12-16T00:43:51.083Z,26.97
2018-12-16T00:44:52.588Z,25.77
2018-12-16T00:45:54.183Z,27.15
2018-12-16T00:46:55.724Z,25.82
2018-12-16T00:47:57.251Z,25.62
2018-12-16T00:48:58.646Z,27.40
2018-12-16T00:50:00.013Z,24.85
2018-12-16T00:51:01.375Z,24.77
2018-12-16T00:52:02.994Z,24.12
2018-12-16T00:53:04.524Z,24.05
2018-12-16T00:54:05.965Z,23.57
2018-12-16T00:55:07.512Z,23.42
2018-12-16T00:56:09.051Z,23.62
2018-12-16T00:57:10.589Z,25.15
2018-12-16T00:58:13.156Z,23.65
2018-12-16T00:59:14.700Z,26.12
2018-12-16T01:00:16.352Z,24.47
2018-12-16T01:01:17.893Z,24.65
2018-12-16T01:02:19.314Z,24.37
2018-12-16T01:03:20.741Z,25.23
2018-12-16T01:04:22.110Z,22.98
2018-12-16T01:05:23.654Z,24.47
2018-12-16T01:06:25.015Z,22.05
2018-12-16T01:07:26.623Z,22.60
2018-12-16T01:08:28.177Z,23.40
2018-12-16T01:09:29.717Z,24.67
2018-12-16T01:10:31.266Z,24.05
2018-12-16T01:11:32.730Z,22.30
2018-12-16T01:12:34.246Z,22.87
2018-12-16T01:13:35.881Z,23.85
2018-12-16T01:14:37.535Z,23.47
2018-12-16T01:15:39.186Z,22.75
2018-12-16T01:16:40.656Z,23.05
2018-12-16T01:17:42.367Z,23.02
2018-12-16T01:18:43.898Z,24.02
2018-12-16T01:19:45.555Z,24.32
2018-12-16T01:20:47.087Z,23.30
2018-12-16T01:21:48.611Z,22.45
2018-12-16T01:22:50.392Z,21.27
2018-12-16T01:23:51.920Z,23.05
2018-12-16T01:24:53.578Z,22.37
2018-12-16T01:25:55.315Z,23.10
2018-12-16T01:26:56.890Z,22.82
2018-12-16T01:27:58.614Z,24.30
2018-12-16T01:29:00.082Z,25.48
2018-12-16T01:30:01.600Z,25.00
2018-12-16T01:31:03.136Z,26.17
2018-12-16T01:32:04.790Z,26.93
2018-12-16T01:33:06.531Z,25.57
2018-12-16T01:34:08.120Z,23.12
2018-12-16T01:35:09.614Z,25.70
2018-12-16T01:36:11.150Z,25.82
2018-12-16T01:37:12.802Z,27.60
2018-12-16T01:38:14.550Z,27.13
2018-12-16T01:39:16.203Z,25.55
2018-12-16T01:40:17.776Z,32.73
2018-12-16T01:41:19.416Z,40.20
2018-12-16T01:42:21.037Z,48.17
2018-12-16T01:43:22.579Z,41.23
2018-12-16T01:44:24.217Z,41.88
2018-12-16T01:45:25.862Z,41.18
2018-12-16T01:46:27.439Z,40.35
2018-12-16T01:47:29.049Z,38.48
2018-12-16T01:48:30.595Z,34.78
2018-12-16T01:49:32.035Z,35.05
2018-12-16T01:50:33.582Z,31.93
2018-12-16T01:51:35.118Z,37.80
2018-12-16T01:52:36.712Z,43.05
2018-12-16T01:53:38.313Z,31.57
2018-12-16T01:54:39.854Z,25.92
2018-12-16T01:55:41.493Z,28.32
2018-12-16T01:56:43.139Z,34.05
2018-12-16T01:57:44.790Z,42.25
2018-12-16T01:58:46.533Z,31.73
2018-12-16T01:59:48.031Z,23.22
2018-12-16T02:00:49.727Z,24.57
2018-12-16T02:01:51.363Z,33.42
2018-12-16T02:02:53.019Z,25.95
2018-12-16T02:03:54.654Z,23.55
2018-12-16T02:04:56.196Z,21.15
2018-12-16T02:05:57.742Z,22.45
2018-12-16T02:06:59.388Z,30.65
2018-12-16T02:08:00.931Z,28.40
2018-12-16T02:09:02.471Z,23.20
2018-12-16T02:10:04.021Z,24.90
2018-12-16T02:11:05.553Z,25.77
2018-12-16T02:12:07.102Z,20.27
2018-12-16T02:13:08.647Z,26.35
2018-12-16T02:14:10.297Z,25.90
2018-12-16T02:15:11.831Z,27.30
2018-12-16T02:16:13.378Z,35.48
2018-12-16T02:17:14.907Z,35.00
2018-12-16T02:18:16.472Z,27.75
2018-12-16T02:19:18.000Z,36.88
2018-12-16T02:20:19.540Z,36.25
2018-12-16T02:21:21.190Z,25.45
2018-12-16T02:22:22.722Z,26.10
2018-12-16T02:23:24.391Z,33.92
2018-12-16T02:24:26.195Z,32.40
2018-12-16T02:25:27.797Z,34.13
2018-12-16T02:26:29.411Z,36.30
2018-12-16T02:27:30.958Z,28.20
2018-12-16T02:28:32.489Z,35.05
2018-12-16T02:29:34.016Z,28.70
2018-12-16T02:30:35.599Z,23.32
2018-12-16T02:31:37.337Z,30.57
2018-12-16T02:32:38.983Z,33.33
2018-12-16T02:33:40.510Z,30.68
2018-12-16T02:34:42.062Z,31.60
2018-12-16T02:35:43.814Z,27.27
2018-12-16T02:36:45.562Z,29.27
2018-12-16T02:37:47.091Z,24.07
2018-12-16T02:38:48.745Z,26.57
2018-12-16T02:39:50.491Z,29.23
2018-12-16T02:40:52.050Z,27.10
2018-12-16T02:41:53.783Z,29.23
2018-12-16T02:42:55.534Z,23.73
2018-12-16T02:43:57.173Z,21.02
2018-12-16T02:44:58.921Z,21.23
2018-12-16T02:46:00.463Z,24.98
2018-12-16T02:47:02.046Z,24.70
2018-12-16T02:48:03.762Z,21.45
2018-12-16T02:49:05.426Z,22.60
2018-12-16T02:50:07.156Z,21.87
2018-12-16T02:51:08.683Z,19.48
2018-12-16T02:52:10.226Z,20.57
2018-12-16T02:53:11.764Z,19.87
2018-12-16T02:54:13.423Z,19.57
2018-12-16T02:55:15.166Z,18.90
2018-12-16T02:56:16.608Z,19.77
2018-12-16T02:57:18.075Z,21.73
2018-12-16T02:58:19.598Z,22.50
2018-12-16T02:59:21.134Z,22.02
2018-12-16T03:00:22.675Z,21.15
2018-12-16T03:01:24.225Z,23.60
2018-12-16T03:02:25.871Z,22.25
2018-12-16T03:03:27.400Z,24.32
2018-12-16T03:04:28.962Z,23.25
2018-12-16T03:05:30.804Z,23.30
2018-12-16T03:06:32.454Z,23.10
2018-12-16T03:07:33.995Z,23.12
2018-12-16T03:08:35.626Z,23.75
2018-12-16T03:09:37.182Z,21.45
2018-12-16T03:10:38.832Z,22.00
2018-12-16T03:11:40.467Z,21.42
2018-12-16T03:12:42.002Z,21.73
2018-12-16T03:13:43.655Z,22.48
2018-12-16T03:14:45.299Z,22.93
2018-12-16T03:15:46.843Z,23.98
2018-12-16T03:16:48.386Z,23.60
2018-12-16T03:17:50.030Z,23.70
2018-12-16T03:18:51.576Z,23.47
2018-12-16T03:19:53.115Z,24.05
2018-12-16T03:20:54.659Z,22.77
2018-12-16T03:21:56.207Z,24.02
2018-12-16T03:22:57.745Z,23.02
2018-12-16T03:23:59.288Z,25.60
2018-12-16T03:25:00.832Z,25.60
2018-12-16T03:26:04.631Z,24.27
2018-12-16T03:27:06.277Z,22.62
2018-12-16T03:28:07.802Z,22.60
2018-12-16T03:29:09.361Z,23.07
2018-12-16T03:30:10.903Z,24.25
2018-12-16T03:31:12.648Z,25.40
2018-12-16T03:32:14.142Z,24.80
2018-12-16T03:33:15.628Z,23.15
2018-12-16T03:34:17.171Z,24.77
2018-12-16T03:35:18.712Z,23.55
2018-12-16T03:36:20.262Z,24.87
2018-12-16T03:37:21.802Z,24.40
2018-12-16T03:38:24.475Z,24.85
2018-12-16T03:39:26.009Z,23.57
2018-12-16T03:40:27.544Z,22.10
2018-12-16T03:41:29.088Z,22.52
2018-12-16T03:42:30.642Z,23.30
2018-12-16T03:43:32.142Z,22.32
2018-12-16T03:44:33.613Z,23.70
2018-12-16T03:45:35.261Z,23.05
2018-12-16T03:46:36.919Z,23.62
2018-12-16T03:47:38.464Z,23.12
2018-12-16T03:48:40.029Z,22.75
2018-12-16T03:49:41.542Z,24.47
2018-12-16T03:50:43.193Z,24.23
2018-12-16T03:51:44.614Z,25.27
2018-12-16T03:52:46.083Z,23.38
2018-12-16T03:53:47.701Z,23.02
2018-12-16T03:54:49.272Z,24.85
2018-12-16T03:55:50.786Z,23.55
2018-12-16T03:56:52.442Z,23.50
2018-12-16T03:57:53.988Z,23.75
2018-12-16T03:58:55.620Z,22.82
2018-12-16T03:59:57.171Z,24.67
2018-12-16T04:00:58.614Z,24.20
2018-12-16T04:02:00.068Z,23.42
2018-12-16T04:03:01.586Z,23.40
2018-12-16T04:04:03.245Z,23.52
2018-12-16T04:05:04.882Z,23.85
2018-12-16T04:06:06.530Z,22.98
2018-12-16T04:07:08.092Z,22.50
2018-12-16T04:08:09.611Z,23.02
2018-12-16T04:09:11.258Z,22.80
2018-12-16T04:10:12.753Z,23.73
2018-12-16T04:11:14.458Z,22.77
2018-12-16T04:12:16.098Z,22.20
2018-12-16T04:13:17.747Z,21.23
2018-12-16T04:14:19.389Z,22.37
2018-12-16T04:15:21.036Z,22.50
2018-12-16T04:16:22.669Z,22.87
2018-12-16T04:17:24.065Z,22.52
2018-12-16T04:18:25.759Z,21.90
2018-12-16T04:19:27.410Z,21.30
2018-12-16T04:20:28.943Z,22.62
2018-12-16T04:21:30.593Z,21.65
2018-12-16T04:22:32.060Z,21.50
2018-12-16T04:23:33.586Z,20.80
2018-12-16T04:24:35.118Z,19.98
2018-12-16T04:25:36.559Z,23.65
2018-12-16T04:26:38.101Z,21.40
2018-12-16T04:27:39.659Z,21.95
2018-12-16T04:28:41.296Z,20.77
2018-12-16T04:29:42.938Z,21.97
2018-12-16T04:30:45.404Z,21.05
2018-12-16T04:31:46.944Z,21.10
2018-12-16T04:32:48.694Z,20.45
2018-12-16T04:33:50.338Z,20.68
2018-12-16T04:34:51.871Z,23.07
2018-12-16T04:35:53.237Z,21.40
2018-12-16T04:36:54.669Z,22.30
2018-12-16T04:37:56.108Z,22.13
2018-12-16T04:38:57.645Z,20.45
2018-12-16T04:39:59.179Z,20.35
2018-12-16T04:41:00.711Z,21.60
2018-12-16T04:42:02.275Z,20.12
2018-12-16T04:43:03.825Z,19.48
2018-12-16T04:44:07.153Z,19.90
2018-12-16T04:45:08.952Z,20.17
2018-12-16T04:46:10.492Z,22.58
2018-12-16T04:47:12.035Z,23.15
2018-12-16T04:48:13.494Z,23.57
2018-12-16T04:49:15.115Z,23.22
2018-12-16T04:50:16.651Z,22.00
2018-12-16T04:51:18.310Z,21.55
2018-12-16T04:52:19.954Z,23.32
2018-12-16T04:53:21.694Z,22.58
2018-12-16T04:54:23.340Z,23.77
2018-12-16T04:55:24.983Z,22.95
2018-12-16T04:56:26.633Z,22.65
2018-12-16T04:57:28.097Z,20.62
2018-12-16T04:58:29.818Z,22.32
2018-12-16T04:59:31.357Z,21.52
2018-12-16T05:00:33.101Z,19.75
2018-12-16T05:01:34.853Z,20.02
2018-12-16T05:02:36.401Z,20.92
2018-12-16T05:03:38.045Z,21.05
2018-12-16T05:04:39.897Z,20.85
2018-12-16T05:05:41.731Z,21.27
2018-12-16T05:06:43.421Z,20.65
2018-12-16T05:07:45.134Z,20.62
2018-12-16T05:08:46.882Z,20.88
2018-12-16T05:09:48.526Z,20.82
2018-12-16T05:10:50.076Z,21.35
2018-12-16T05:11:51.718Z,21.70
2018-12-16T05:12:53.249Z,22.07
2018-12-16T05:13:54.904Z,20.43
2018-12-16T05:14:56.546Z,22.10
2018-12-16T05:15:58.077Z,22.75
2018-12-16T05:16:59.600Z,19.23
2018-12-16T05:18:01.081Z,19.12
2018-12-16T05:19:02.614Z,20.27
2018-12-16T05:20:04.266Z,20.48
2018-12-16T05:21:05.897Z,21.15
2018-12-16T05:22:07.451Z,21.33
2018-12-16T05:23:08.995Z,20.48
2018-12-16T05:24:10.639Z,20.30
2018-12-16T05:25:12.136Z,20.95
2018-12-16T05:26:13.826Z,19.92
2018-12-16T05:27:15.356Z,20.85
2018-12-16T05:28:16.923Z,22.60
2018-12-16T05:29:18.559Z,23.25
2018-12-16T05:30:19.936Z,21.15
2018-12-16T05:31:21.320Z,22.48
2018-12-16T05:32:22.981Z,21.42
2018-12-16T05:33:24.629Z,19.00
2018-12-16T05:34:26.377Z,20.52
2018-12-16T05:35:27.910Z,20.97
2018-12-16T05:36:29.452Z,19.85
2018-12-16T05:37:30.998Z,21.10
2018-12-16T05:38:32.545Z,20.45
2018-12-16T05:39:34.394Z,20.80
2018-12-16T05:40:35.941Z,20.30
2018-12-16T05:41:37.485Z,21.23
2018-12-16T05:42:39.011Z,18.67
2018-12-16T05:43:40.519Z,19.37
2018-12-16T05:44:42.311Z,20.57
2018-12-16T05:45:43.956Z,19.67
2018-12-16T05:46:45.598Z,19.45
2018-12-16T05:47:47.143Z,19.55
2018-12-16T05:48:48.687Z,21.27
2018-12-16T05:49:50.326Z,21.35
2018-12-16T05:50:51.975Z,20.80
2018-12-16T05:51:53.619Z,18.30
2018-12-16T05:52:55.265Z,19.00
2018-12-16T05:53:56.913Z,20.02
2018-12-16T05:54:58.441Z,21.05
2018-12-16T05:56:00.095Z,20.35
2018-12-16T05:57:01.633Z,20.02
2018-12-16T05:58:03.291Z,20.12
2018-12-16T05:59:04.931Z,19.37
2018-12-16T06:00:06.678Z,18.95
2018-12-16T06:01:08.322Z,20.02
2018-12-16T06:02:10.076Z,20.08
2018-12-16T06:03:11.715Z,21.73
2018-12-16T06:04:13.358Z,22.98
2018-12-16T06:05:15.014Z,22.93
2018-12-16T06:06:16.659Z,21.23
2018-12-16T06:07:18.303Z,21.82
2018-12-16T06:08:19.946Z,20.85
2018-12-16T06:09:21.586Z,20.92
2018-12-16T06:10:23.134Z,19.42
2018-12-16T06:11:24.576Z,19.92
2018-12-16T06:12:26.105Z,19.82
2018-12-16T06:13:27.657Z,19.95
2018-12-16T06:14:29.201Z,19.67
2018-12-16T06:15:30.744Z,19.73
2018-12-16T06:16:32.101Z,19.80
2018-12-16T06:17:33.511Z,21.80
2018-12-16T06:18:36.102Z,21.15
2018-12-16T06:19:37.619Z,20.37
2018-12-16T06:20:39.180Z,19.37
2018-12-16T06:21:40.819Z,20.02
2018-12-16T06:22:42.347Z,20.48
2018-12-16T06:23:44.007Z,19.48
2018-12-16T06:24:45.655Z,18.45
2018-12-16T06:25:47.434Z,19.62
2018-12-16T06:26:50.072Z,19.52
2018-12-16T06:27:51.706Z,18.73
2018-12-16T06:28:53.387Z,19.52
2018-12-16T06:29:54.903Z,20.05
2018-12-16T06:30:56.648Z,20.20
2018-12-16T06:31:58.117Z,19.02
2018-12-16T06:32:59.635Z,19.40
2018-12-16T06:34:01.181Z,18.80
2018-12-16T06:35:02.716Z,19.07
2018-12-16T06:36:04.274Z,22.22
2018-12-16T06:37:05.805Z,19.23
2018-12-16T06:38:07.177Z,17.62
2018-12-16T06:39:08.686Z,20.17
2018-12-16T06:40:10.146Z,18.40
2018-12-16T06:41:11.971Z,18.57
2018-12-16T06:42:13.615Z,20.48
2018-12-16T06:43:15.271Z,20.77
2018-12-16T06:44:16.906Z,20.72
2018-12-16T06:45:18.550Z,23.35
2018-12-16T06:46:20.434Z,22.77
2018-12-16T06:47:22.277Z,22.25
2018-12-16T06:48:23.990Z,22.13
2018-12-16T06:49:25.750Z,20.80
2018-12-16T06:50:27.499Z,21.93
2018-12-16T06:51:29.037Z,21.50
2018-12-16T06:52:30.589Z,20.97
2018-12-16T06:53:32.121Z,21.55
2018-12-16T06:54:33.667Z,19.45
2018-12-16T06:55:35.209Z,20.23
2018-12-16T06:56:36.751Z,17.40
2018-12-16T06:57:38.144Z,19.12
2018-12-16T06:58:39.633Z,20.05
2018-12-16T06:59:41.171Z,19.92
2018-12-16T07:00:42.704Z,19.40
2018-12-16T07:01:44.366Z,19.95
2018-12-16T07:02:46.126Z,20.95
2018-12-16T07:03:47.741Z,25.37
2018-12-16T07:04:49.400Z,21.10
2018-12-16T07:05:51.142Z,19.12
2018-12-16T07:06:53.248Z,18.07
2018-12-16T07:07:55.156Z,20.60
2018-12-16T07:08:56.686Z,21.27
2018-12-16T07:09:58.345Z,19.37
2018-12-16T07:11:00.008Z,21.50
2018-12-16T07:12:01.535Z,20.10
2018-12-16T07:13:03.085Z,23.92
2018-12-16T07:14:04.615Z,19.80
2018-12-16T07:15:06.112Z,20.92
2018-12-16T07:16:07.637Z,18.55
2018-12-16T07:17:09.244Z,19.12
2018-12-16T07:18:10.681Z,20.82
2018-12-16T07:19:12.165Z,23.47
2018-12-16T07:20:13.652Z,21.07
2018-12-16T07:21:15.351Z,20.65
2018-12-16T07:22:16.955Z,19.35
2018-12-16T07:23:18.489Z,18.17
2018-12-16T07:24:20.150Z,20.50
2018-12-16T07:25:21.684Z,22.58
2018-12-16T07:26:23.538Z,20.62
2018-12-16T07:27:26.307Z,22.52
2018-12-16T07:28:27.843Z,21.93
2018-12-16T07:29:29.511Z,21.68
2018-12-16T07:30:30.970Z,21.55
2018-12-16T07:31:32.680Z,20.55
2018-12-16T07:32:34.174Z,21.10
2018-12-16T07:33:35.701Z,19.70
2018-12-16T07:34:37.519Z,20.57
2018-12-16T07:35:39.153Z,18.95
2018-12-16T07:36:40.921Z,22.10
2018-12-16T07:37:42.642Z,21.77
2018-12-16T07:38:44.313Z,22.40
2018-12-16T07:39:45.958Z,21.33
2018-12-16T07:40:47.596Z,20.12
2018-12-16T07:41:49.253Z,20.82
2018-12-16T07:42:50.859Z,20.20
2018-12-16T07:43:52.584Z,20.70
2018-12-16T07:44:54.102Z,22.35
2018-12-16T07:45:55.675Z,20.60
2018-12-16T07:46:57.971Z,21.82
2018-12-16T07:47:59.523Z,20.27
2018-12-16T07:49:01.077Z,18.98
2018-12-16T07:50:02.734Z,20.35
2018-12-16T07:51:04.361Z,19.17
2018-12-16T07:52:06.017Z,18.77
2018-12-16T07:53:07.856Z,16.93
2018-12-16T07:54:15.930Z,16.57
2018-12-16T07:55:13.122Z,18.10
2018-12-16T07:56:14.869Z,15.40
2018-12-16T07:57:16.479Z,16.80
2018-12-16T07:58:18.016Z,16.73
2018-12-16T07:59:19.573Z,15.28
2018-12-16T08:00:21.257Z,14.10
2018-12-16T08:01:22.741Z,13.83
2018-12-16T08:02:24.250Z,13.80
2018-12-16T08:03:25.860Z,14.98
2018-12-16T08:04:27.382Z,13.55
2018-12-16T08:05:28.846Z,20.08
2018-12-16T08:06:30.359Z,17.52
2018-12-16T08:07:31.899Z,35.50
2018-12-16T08:08:33.437Z,32.93
2018-12-16T08:09:34.832Z,24.75
2018-12-16T08:10:36.316Z,14.90
2018-12-16T08:11:37.888Z,14.10
2018-12-16T08:12:39.358Z,16.87
2018-12-16T08:13:40.941Z,17.12
2018-12-16T08:14:42.484Z,15.50
2018-12-16T08:15:43.974Z,14.93
2018-12-16T08:16:45.404Z,14.93
2018-12-16T08:17:46.906Z,14.58
2018-12-16T08:18:49.411Z,16.17
2018-12-16T08:19:51.126Z,15.50
2018-12-16T08:20:52.628Z,20.00
2018-12-16T08:21:53.999Z,18.12
2018-12-16T08:22:55.439Z,16.03
2018-12-16T08:23:56.981Z,17.92
2018-12-16T08:24:58.431Z,20.32
2018-12-16T08:25:59.810Z,19.62
2018-12-16T08:27:01.195Z,16.80
2018-12-16T08:28:02.756Z,18.20
2018-12-16T08:29:04.183Z,18.20
2018-12-16T08:30:05.587Z,16.55
2018-12-16T08:31:06.983Z,15.78
2018-12-16T08:32:08.697Z,15.65
2018-12-16T08:33:10.073Z,16.95
2018-12-16T08:34:11.521Z,44.75
2018-12-16T08:35:12.904Z,108.25
2018-12-16T08:36:14.416Z,30.27
2018-12-16T08:37:15.902Z,17.95
2018-12-16T08:38:17.466Z,19.70
2018-12-16T08:39:19.006Z,19.48
2018-12-16T08:40:20.562Z,15.05
2018-12-16T08:41:22.047Z,15.03
2018-12-16T08:42:23.451Z,16.42
2018-12-16T08:43:24.845Z,13.98
2018-12-16T08:44:26.245Z,14.23
2018-12-16T08:45:27.735Z,14.68
2018-12-16T08:46:29.319Z,16.07
2018-12-16T08:47:33.222Z,17.37
2018-12-16T08:48:34.202Z,26.30
2018-12-16T08:49:35.637Z,34.75
2018-12-16T08:50:37.242Z,16.20
2018-12-16T08:51:38.749Z,18.90
2018-12-16T08:52:40.160Z,21.10
2018-12-16T08:53:41.600Z,18.75
2018-12-16T08:54:43.107Z,19.62
2018-12-16T08:55:44.526Z,19.25
2018-12-16T08:56:45.909Z,17.82
2018-12-16T08:57:47.291Z,16.02
2018-12-16T08:58:48.761Z,16.60
2018-12-16T08:59:50.279Z,16.77
2018-12-16T09:00:51.712Z,16.02
2018-12-16T09:01:53.080Z,14.25
2018-12-16T09:02:54.456Z,19.67
2018-12-16T09:03:55.877Z,15.98
2018-12-16T09:04:57.595Z,22.52
2018-12-16T09:06:00.092Z,20.43
2018-12-16T09:07:01.493Z,18.43
2018-12-16T09:08:02.939Z,17.25
2018-12-16T09:09:04.320Z,16.70
2018-12-16T09:10:05.735Z,15.75
2018-12-16T09:11:07.174Z,18.55
2018-12-16T09:12:08.566Z,19.85
2018-12-16T09:13:10.004Z,16.75
2018-12-16T09:14:11.411Z,20.12
2018-12-16T09:15:12.849Z,19.10
2018-12-16T09:16:14.258Z,16.55
2018-12-16T09:17:15.799Z,15.57
2018-12-16T09:18:17.240Z,17.25
2018-12-16T09:19:18.644Z,17.15
2018-12-16T09:20:20.051Z,20.90
2018-12-16T09:21:21.536Z,22.22
2018-12-16T09:22:22.972Z,17.45
2018-12-16T09:23:24.400Z,19.95
2018-12-16T09:24:25.884Z,22.73
2018-12-16T09:25:27.307Z,22.60
2018-12-16T09:26:28.712Z,29.40
2018-12-16T09:27:30.132Z,28.25
2018-12-16T09:28:31.567Z,21.07
2018-12-16T09:29:33.116Z,17.57
2018-12-16T09:30:34.557Z,14.43
2018-12-16T09:31:35.961Z,16.12
2018-12-16T09:32:37.362Z,18.75
2018-12-16T09:33:38.796Z,19.20
2018-12-16T09:34:40.432Z,19.32
2018-12-16T09:35:41.838Z,17.25
2018-12-16T09:36:43.265Z,19.42
2018-12-16T09:37:44.686Z,16.82
2018-12-16T09:38:46.087Z,20.17
2018-12-16T09:39:47.622Z,26.57
2018-12-16T09:40:49.048Z,16.77
2018-12-16T09:41:50.460Z,15.45
2018-12-16T09:42:51.851Z,19.37
2018-12-16T09:43:53.359Z,24.47
2018-12-16T09:44:54.848Z,20.72
2018-12-16T09:45:56.299Z,17.12
2018-12-16T09:46:57.727Z,19.20
2018-12-16T09:47:59.121Z,19.15
2018-12-16T09:49:00.533Z,20.27
2018-12-16T09:50:01.965Z,19.23
2018-12-16T09:51:03.441Z,21.05
2018-12-16T09:52:04.833Z,16.93
2018-12-16T09:53:06.257Z,16.48
2018-12-16T09:54:07.842Z,15.00
2018-12-16T09:55:09.369Z,15.65
2018-12-16T09:56:10.768Z,16.97
2018-12-16T09:57:12.228Z,15.83
2018-12-16T09:58:13.646Z,15.55
2018-12-16T09:59:15.070Z,14.50
2018-12-16T10:00:16.525Z,15.25
2018-12-16T10:01:17.947Z,16.77
2018-12-16T10:02:19.315Z,15.32
2018-12-16T10:03:20.730Z,15.83
2018-12-16T10:04:22.134Z,16.20
2018-12-16T10:05:23.570Z,15.70
2018-12-16T10:06:24.987Z,18.15
2018-12-16T10:07:26.421Z,17.92
2018-12-16T10:08:27.818Z,18.30
2018-12-16T10:09:29.237Z,16.20
2018-12-16T10:10:30.692Z,13.65
2018-12-16T10:11:32.093Z,13.95
2018-12-16T10:12:33.452Z,14.47
2018-12-16T10:13:34.840Z,14.65
2018-12-16T10:14:36.252Z,15.55
2018-12-16T10:15:37.691Z,14.63
2018-12-16T10:16:39.100Z,16.60
2018-12-16T10:17:40.524Z,16.07
2018-12-16T10:18:41.946Z,16.23
2018-12-16T10:19:43.365Z,23.92
2018-12-16T10:20:44.896Z,16.55
2018-12-16T10:21:46.337Z,14.47
2018-12-16T10:22:47.774Z,14.45
2018-12-16T10:23:49.175Z,15.05
2018-12-16T10:24:51.502Z,16.30
2018-12-16T10:25:53.258Z,14.30
2018-12-16T10:26:54.690Z,19.75
2018-12-16T10:27:56.074Z,22.25
2018-12-16T10:28:57.493Z,18.37
2018-12-16T10:29:58.855Z,16.52
2018-12-16T10:31:00.373Z,18.25
2018-12-16T10:32:01.762Z,16.25
2018-12-16T10:33:03.180Z,16.40
2018-12-16T10:34:04.607Z,17.90
2018-12-16T10:35:06.051Z,15.30
2018-12-16T10:36:07.512Z,15.45
2018-12-16T10:37:08.917Z,21.20
2018-12-16T10:38:10.282Z,16.30
2018-12-16T10:39:11.616Z,14.95
2018-12-16T10:40:12.981Z,16.20
2018-12-16T10:41:14.373Z,18.70
2018-12-16T10:42:20.811Z,15.65
2018-12-16T10:43:22.191Z,18.75
2018-12-16T10:44:23.590Z,20.85
2018-12-16T10:45:24.938Z,19.73
2018-12-16T10:46:26.340Z,17.50
2018-12-16T10:47:27.706Z,20.68
2018-12-16T10:48:29.089Z,20.10
2018-12-16T10:49:30.447Z,17.20
2018-12-16T10:50:31.823Z,16.57
2018-12-16T10:51:33.280Z,23.10
2018-12-16T10:52:34.645Z,24.18
2018-12-16T10:53:36.657Z,29.30
2018-12-16T10:54:38.212Z,21.12
2018-12-16T10:55:39.574Z,18.95
2018-12-16T10:56:41.025Z,15.48
2018-12-16T10:57:42.450Z,14.93
2018-12-16T10:58:43.895Z,14.58
2018-12-16T10:59:45.330Z,16.67
2018-12-16T11:00:46.688Z,25.57
2018-12-16T11:01:48.130Z,20.85
2018-12-16T11:02:49.550Z,16.05
2018-12-16T11:03:51.093Z,16.37
2018-12-16T11:04:52.462Z,14.10
2018-12-16T11:05:53.808Z,14.33
2018-12-16T11:06:55.205Z,16.00
2018-12-16T11:07:56.611Z,15.18
2018-12-16T11:08:57.965Z,14.68
2018-12-16T11:09:59.400Z,14.45
2018-12-16T11:11:00.782Z,14.10
2018-12-16T11:12:02.241Z,13.70
2018-12-16T11:13:03.601Z,14.68
2018-12-16T11:14:04.977Z,15.88
2018-12-16T11:15:06.353Z,16.20
2018-12-16T11:16:07.694Z,15.58
2018-12-16T11:17:09.147Z,14.63
2018-12-16T11:18:10.515Z,14.33
2018-12-16T11:19:11.933Z,18.48
2018-12-16T11:20:13.353Z,16.23
2018-12-16T11:21:14.704Z,16.87
2018-12-16T11:22:16.076Z,17.20
2018-12-16T11:23:17.477Z,15.98
2018-12-16T11:24:18.880Z,15.43
2018-12-16T11:25:20.292Z,16.48
2018-12-16T11:26:21.691Z,16.05
2018-12-16T11:27:23.151Z,15.05
2018-12-16T11:28:24.572Z,16.65
2018-12-16T11:29:25.930Z,17.67
2018-12-16T11:30:27.441Z,14.75
2018-12-16T11:31:28.810Z,14.87
2018-12-16T11:32:30.297Z,15.03
2018-12-16T11:33:31.743Z,14.80
2018-12-16T11:34:33.142Z,14.98
2018-12-16T11:35:34.603Z,13.53
2018-12-16T11:36:36.005Z,12.93
2018-12-16T11:37:37.448Z,12.95
2018-12-16T11:38:38.823Z,13.25
2018-12-16T11:39:40.253Z,13.13
2018-12-16T11:40:41.600Z,14.07
2018-12-16T11:41:43.028Z,14.18
2018-12-16T11:42:44.560Z,13.48
2018-12-16T11:43:45.962Z,13.10
2018-12-16T11:44:47.374Z,16.60
2018-12-16T11:45:48.810Z,14.78
2018-12-16T11:46:50.327Z,14.85
2018-12-16T11:47:51.831Z,14.20
2018-12-16T11:48:53.254Z,13.72
2018-12-16T11:49:54.692Z,12.55
2018-12-16T11:50:56.100Z,13.40
2018-12-16T11:51:57.479Z,14.80
2018-12-16T11:52:58.965Z,14.45
2018-12-16T11:54:00.371Z,15.60
2018-12-16T11:55:01.770Z,16.55
2018-12-16T11:56:03.174Z,15.75
2018-12-16T11:57:04.581Z,13.70
2018-12-16T11:58:06.056Z,14.95
2018-12-16T11:59:07.463Z,14.87
2018-12-16T12:00:08.896Z,19.75
2018-12-16T12:01:10.248Z,30.30
2018-12-16T12:02:11.756Z,25.43
2018-12-16T12:03:13.252Z,16.00
2018-12-16T12:04:14.713Z,16.27
2018-12-16T12:05:16.148Z,22.48
2018-12-16T12:06:17.529Z,20.08
2018-12-16T12:07:18.927Z,21.75
2018-12-16T12:08:20.373Z,21.27
2018-12-16T12:09:21.737Z,19.40
2018-12-16T12:10:23.171Z,22.27
2018-12-16T12:11:24.532Z,17.05
2018-12-16T12:12:25.903Z,22.67
2018-12-16T12:13:27.346Z,24.55
2018-12-16T12:14:28.736Z,24.23
2018-12-16T12:15:30.100Z,16.85
2018-12-16T12:16:31.518Z,17.73
2018-12-16T12:17:32.923Z,15.10
2018-12-16T12:18:34.675Z,14.33
2018-12-16T12:19:36.191Z,16.67
2018-12-16T12:20:37.639Z,14.60
2018-12-16T12:21:39.064Z,17.77
2018-12-16T12:22:40.423Z,17.27
2018-12-16T12:23:41.884Z,15.10
2018-12-16T12:24:43.243Z,15.70
2018-12-16T12:25:44.641Z,17.32
2018-12-16T12:26:46.030Z,15.70
2018-12-16T12:27:47.398Z,16.42
2018-12-16T12:28:48.804Z,16.35
2018-12-16T12:29:50.199Z,14.35
2018-12-16T12:30:51.583Z,14.98
2018-12-16T12:31:52.938Z,14.00
2018-12-16T12:32:54.395Z,13.80
2018-12-16T12:33:56.305Z,15.40
2018-12-16T12:34:57.721Z,16.82
2018-12-16T12:35:59.071Z,14.15
2018-12-16T12:37:00.473Z,14.47
2018-12-16T12:38:01.884Z,12.20
2018-12-16T12:39:03.344Z,12.25
2018-12-16T12:40:04.838Z,13.20
2018-12-16T12:41:06.283Z,11.97
2018-12-16T12:42:07.787Z,11.12
2018-12-16T12:43:09.165Z,12.05
2018-12-16T12:44:10.697Z,12.73
2018-12-16T12:45:12.210Z,13.40
2018-12-16T12:46:13.638Z,12.23
2018-12-16T12:47:15.047Z,12.75
2018-12-16T12:48:16.454Z,18.95
2018-12-16T12:49:17.918Z,14.80
2018-12-16T12:50:19.322Z,14.35
2018-12-16T12:51:20.757Z,13.58
2018-12-16T12:52:22.200Z,11.60
2018-12-16T12:53:23.638Z,12.20
2018-12-16T12:54:25.065Z,14.93
2018-12-16T12:55:26.932Z,14.35
2018-12-16T12:56:28.639Z,13.32
2018-12-16T12:57:30.051Z,13.98
2018-12-16T12:58:31.449Z,16.37
2018-12-16T12:59:32.887Z,17.05
2018-12-16T13:00:34.269Z,13.25
2018-12-16T13:01:35.692Z,14.20
2018-12-16T13:02:37.086Z,14.07
2018-12-16T13:03:38.485Z,14.45
2018-12-16T13:04:39.986Z,12.95
2018-12-16T13:05:41.399Z,12.63
2018-12-16T13:06:42.805Z,12.68
2018-12-16T13:07:44.193Z,14.43
2018-12-16T13:08:45.755Z,15.90
2018-12-16T13:09:47.174Z,15.18
2018-12-16T13:10:48.557Z,14.05
2018-12-16T13:11:50.007Z,14.85
2018-12-16T13:12:51.429Z,16.27